Terminal Aerodrome Forecast
Issued by NWS Paducah, KY

Home | Current Version | Previous Version | Text Only | Print | Product List | Glossary Off
Versions: 1 2 3 4 5 6 7 8 9 10 11 12

511
FTUS43 KPAH 201720
TAFPAH
TAF
KPAH 201720Z 2018/2118 07010KT P6SM SKC
     FM210100 07004KT P6SM FEW250
     FM211400 10008KT P6SM SCT250=

USA.gov is the U.S. government's official web portal to all federal, state and local government web resources and services.